AirNav   Air Wisconsin pilot careers
 
 1649 users online  

7M0 Mc Crory/Morton Airport
Mc Crory, Arkansas, USA


FAA INFORMATION EFFECTIVE 01 FEBRUARY 2018

Location

FAA Identifier: 7M0
Lat/Long: 35-13-42.3000N / 091-05-35.4000W
35-13.705000N / 091-05.590000W
35.2284167 / -91.0931667
(estimated)
Elevation: 222 ft. / 67.7 m (surveyed)
Variation: 03E (1985)
From city: 6 miles SE of MC CRORY, AR
Time zone: UTC -6 (UTC -5 during Daylight Saving Time)
Zip code: 72101

Airport Operations

Airport use: Open to the public
Activation date: 06/1964
Control tower: no
ARTCC: MEMPHIS CENTER
FSS: JONESBORO FLIGHT SERVICE STATION
NOTAMs facility: JBR (NOTAM-D service available)
Attendance: UNATNDD
Wind indicator: yes
Segmented circle: no

Airport Communications

CTAF: 122.9

Nearby radio navigation aids

VOR radial/distance  VOR name  Freq  Var
GQEr253/30.9GILMORE VOR/DME113.0004E

Airport Services

Airframe service: NONE
Powerplant service: NONE
Bottled oxygen: NONE
Bulk oxygen: NONE

Runway Information

Runway 18/36

Dimensions: 2400 x 20 ft. / 732 x 6 m
Surface: asphalt, in good condition
RUNWAY 18  RUNWAY 36
Latitude: 35-13.903167N35-13.507500N
Longitude: 091-05.585500W091-05.594333W
Traffic pattern: leftleft
Obstructions: 45 ft. trees, 1800 ft. from runway, 35:1 slope to clear45 ft. trees, 2000 ft. from runway, 40:1 slope to clear

Airport Ownership and Management from official FAA records

Ownership: Privately-owned
Owner: G.L. MORRIS & I.N. ARNOF
P.O. BOX 750
MC CRORY, AR 72101
Phone 870-731-2218
Manager: MARTY REYNOLDS
REYNOLDS FLYING SVC 9358 HWY 269
MC CRORY, AR 72101
Phone (870) 457-2069

Airport Operational Statistics

Aircraft based on the field: 2
Single engine airplanes: 2
    
Aircraft operations: avg 82/day *
100% local general aviation
<1% transient general aviation
* for 12-month period ending 31 August 2016

Instrument Procedures

There are no published instrument procedures at 7M0.

Some nearby airports with instrument procedures:

M60 - Woodruff County Airport (9 nm W)
KDRP - Delta Regional Airport (15 nm SE)
M36 - Frank Federer Memorial Airport (21 nm S)
M19 - Newport Regional Airport (25 nm N)
6M7 - Marianna/Lee County Airport-Steve Edwards Field (30 nm SE)
 
Loc | Ops | Rwys | IFR | FBO | Links
Com | Nav | Svcs | Stats | Notes

Fly Arkansas
AirBoss

 
Area around 7M0 (Mc Crory/Morton Airport)
 
Road maps at: MapQuest Bing Google
 
Aerial photo
WARNING: Photo may not be current or correct
Aerial photo of 7M0 (Mc Crory/Morton Airport)
Do you have a better or more recent aerial photo of Mc Crory/Morton Airport that you would like to share? If so, please send us your photo.

 
Sectional chart

 
Airport distance calculator
Flying to Mc Crory/Morton Airport? Find the distance to fly.

From to 7M0

Sunrise and sunset
Times for 20-Feb-2018
 Local
(UTC-6)
 Zulu
(UTC)
Morning civil twilight06:2012:20
Sunrise06:4612:46
Sunset17:5023:50
Evening civil twilight18:1600:16

Current date and time
Zulu (UTC)  20-Feb-2018 21:50:39
Local (UTC-6)  20-Feb-2018 15:50:39
 
METAR
KM19 
25nm N 
201456Z AUTO 17015KT 10SM 19/18 A3007 RMK AO2 SLP188 T01940178 53012 $
KSRC 
31nm W 
202056Z AUTO 18015KT 10SM SCT036 SCT045 BKN065 26/20 A2997 RMK AO2 SLP156 T02560200 56022
KBVX 
40nm NW 
202056Z AUTO 16014G20KT 10SM BKN037 BKN120 26/17 A2997 RMK AO2 PK WND 17026/2036 SLP144 T02560172 58019
KJBR 
42nm NE 
202053Z AUTO 18013G21KT 10SM SCT041 BKN047 BKN080 24/19 A3001 RMK AO2 SLP160 T02390189 56018
KAWM 
42nm E 
202053Z AUTO 18017G25KT 10SM FEW041 SCT048 BKN085 24/19 A3004 RMK AO2 PK WND 18027/2035 SLP170 T02390189 56020
KSGT 
44nm SW 
202056Z AUTO 16016G25KT 10SM FEW027 SCT033 BKN041 26/19 A3001 RMK AO2 SLP160 T02560194 56024
KUTA 
49nm SE 
202135Z AUTO 16016G21KT 10SM 24/17 A3005 RMK AO2 TSNO
TAF
KJBR 
42nm NE 
201732Z 2018/2118 18018G26KT P6SM VCSH OVC025 FM202200 17017G23KT P6SM VCSH SCT030 BKN040 BKN250 FM210400 20014KT P6SM VCTS BKN035CB OVC070 TEMPO 2104/2108 1SM +TSRA OVC008CB FM210800 01012KT 3SM -RA OVC005 FM211400 03012G18KT 2SM RA OVC003
NOTAMs
Click for the latest NOTAMs
NOTAMs are issued by the DoD/FAA and will open in a separate window not controlled by AirNav.

 

 
 

Would you like to see your business listed on this page?

 If your business provides an interesting product or service to pilots, flight crews, aircraft, or users of the Mc Crory/Morton Airport, you should consider listing it here.  To start the listing process, click on the button below
 
Add a business
 

Other Pages about Mc Crory/Morton Airport

Update a link
 
Copyright © AirNav, LLC. All rights reserved. Privacy Policy  Contact